sensor_id;sensor_type;location;lat;lon;timestamp;P1;durP1;ratioP1;P2;durP2;ratioP2
4430;SDS011;2228;48.140;11.488;2023-04-24T00:01:32;3.00;;;2.00;;
4430;SDS011;2228;48.140;11.488;2023-04-24T00:04:02;5.40;;;2.10;;
4430;SDS011;2228;48.140;11.488;2023-04-24T00:06:29;2.40;;;1.70;;
4430;SDS011;2228;48.140;11.488;2023-04-24T00:08:58;2.78;;;1.85;;
4430;SDS011;2228;48.140;11.488;2023-04-24T00:11:27;1.73;;;1.55;;
4430;SDS011;2228;48.140;11.488;2023-04-24T00:13:54;2.55;;;1.65;;
4430;SDS011;2228;48.140;11.488;2023-04-24T00:16:21;4.22;;;1.70;;
4430;SDS011;2228;48.140;11.488;2023-04-24T00:18:48;2.75;;;1.88;;
4430;SDS011;2228;48.140;11.488;2023-04-24T00:21:17;2.40;;;1.50;;
4430;SDS011;2228;48.140;11.488;2023-04-24T00:23:44;2.50;;;1.70;;
4430;SDS011;2228;48.140;11.488;2023-04-24T00:26:11;2.63;;;1.70;;
4430;SDS011;2228;48.140;11.488;2023-04-24T00:28:39;4.43;;;1.50;;
4430;SDS011;2228;48.140;11.488;2023-04-24T00:31:06;2.50;;;1.50;;
4430;SDS011;2228;48.140;11.488;2023-04-24T00:33:33;3.85;;;1.60;;
4430;SDS011;2228;48.140;11.488;2023-04-24T00:36:00;5.70;;;1.60;;
4430;SDS011;2228;48.140;11.488;2023-04-24T00:38:27;1.80;;;1.50;;
4430;SDS011;2228;48.140;11.488;2023-04-24T00:40:54;1.60;;;1.30;;
4430;SDS011;2228;48.140;11.488;2023-04-24T00:43:21;2.20;;;1.30;;
4430;SDS011;2228;48.140;11.488;2023-04-24T00:45:49;1.92;;;1.40;;
4430;SDS011;2228;48.140;11.488;2023-04-24T00:48:16;1.67;;;1.50;;
4430;SDS011;2228;48.140;11.488;2023-04-24T00:50:44;2.72;;;1.30;;
4430;SDS011;2228;48.140;11.488;2023-04-24T00:53:11;1.70;;;0.90;;
4430;SDS011;2228;48.140;11.488;2023-04-24T00:55:38;1.90;;;1.10;;
4430;SDS011;2228;48.140;11.488;2023-04-24T00:58:05;1.30;;;1.10;;
4430;SDS011;2228;48.140;11.488;2023-04-24T01:00:32;2.70;;;1.10;;
4430;SDS011;2228;48.140;11.488;2023-04-24T01:03:01;2.60;;;1.10;;
4430;SDS011;2228;48.140;11.488;2023-04-24T01:05:32;2.37;;;1.03;;
4430;SDS011;2228;48.140;11.488;2023-04-24T01:07:59;2.08;;;1.10;;
4430;SDS011;2228;48.140;11.488;2023-04-24T01:10:27;3.70;;;1.00;;
4430;SDS011;2228;48.140;11.488;2023-04-24T01:12:57;2.55;;;1.08;;
4430;SDS011;2228;48.140;11.488;2023-04-24T01:15:24;3.60;;;1.00;;
4430;SDS011;2228;48.140;11.488;2023-04-24T01:17:51;1.67;;;1.00;;
4430;SDS011;2228;48.140;11.488;2023-04-24T01:20:20;1.70;;;0.90;;
4430;SDS011;2228;48.140;11.488;2023-04-24T01:22:48;1.20;;;1.00;;
4430;SDS011;2228;48.140;11.488;2023-04-24T01:25:15;1.20;;;0.80;;
4430;SDS011;2228;48.140;11.488;2023-04-24T01:27:42;2.47;;;0.80;;
4430;SDS011;2228;48.140;11.488;2023-04-24T01:30:10;1.30;;;0.80;;
4430;SDS011;2228;48.140;11.488;2023-04-24T01:32:38;1.60;;;0.80;;
4430;SDS011;2228;48.140;11.488;2023-04-24T01:35:06;2.40;;;0.80;;
4430;SDS011;2228;48.140;11.488;2023-04-24T01:37:34;1.10;;;0.80;;
4430;SDS011;2228;48.140;11.488;2023-04-24T01:40:03;1.50;;;0.80;;
4430;SDS011;2228;48.140;11.488;2023-04-24T01:42:31;1.67;;;0.80;;
4430;SDS011;2228;48.140;11.488;2023-04-24T01:44:58;2.30;;;0.80;;
4430;SDS011;2228;48.140;11.488;2023-04-24T01:47:26;1.05;;;0.80;;
4430;SDS011;2228;48.140;11.488;2023-04-24T01:49:54;1.70;;;0.88;;
4430;SDS011;2228;48.140;11.488;2023-04-24T01:52:21;1.98;;;0.70;;
4430;SDS011;2228;48.140;11.488;2023-04-24T01:54:48;3.67;;;1.10;;
4430;SDS011;2228;48.140;11.488;2023-04-24T01:57:16;16.45;;;1.30;;
4430;SDS011;2228;48.140;11.488;2023-04-24T01:59:43;2.05;;;0.90;;
4430;SDS011;2228;48.140;11.488;2023-04-24T02:02:10;1.00;;;0.70;;
4430;SDS011;2228;48.140;11.488;2023-04-24T02:04:37;1.20;;;0.80;;
4430;SDS011;2228;48.140;11.488;2023-04-24T02:07:04;1.50;;;0.82;;
4430;SDS011;2228;48.140;11.488;2023-04-24T02:09:31;2.10;;;0.70;;
4430;SDS011;2228;48.140;11.488;2023-04-24T02:11:57;1.80;;;0.90;;
4430;SDS011;2228;48.140;11.488;2023-04-24T02:14:27;1.90;;;0.90;;
4430;SDS011;2228;48.140;11.488;2023-04-24T02:16:54;1.40;;;0.80;;
4430;SDS011;2228;48.140;11.488;2023-04-24T02:19:21;1.35;;;0.73;;
4430;SDS011;2228;48.140;11.488;2023-04-24T02:21:48;3.10;;;0.80;;
4430;SDS011;2228;48.140;11.488;2023-04-24T02:24:15;1.10;;;0.70;;
4430;SDS011;2228;48.140;11.488;2023-04-24T02:26:42;1.48;;;0.73;;
4430;SDS011;2228;48.140;11.488;2023-04-24T02:29:09;1.73;;;0.80;;
4430;SDS011;2228;48.140;11.488;2023-04-24T02:31:37;2.50;;;0.80;;
4430;SDS011;2228;48.140;11.488;2023-04-24T02:34:04;1.60;;;0.90;;
4430;SDS011;2228;48.140;11.488;2023-04-24T02:36:31;1.40;;;0.70;;
4430;SDS011;2228;48.140;11.488;2023-04-24T02:38:58;2.67;;;0.80;;
4430;SDS011;2228;48.140;11.488;2023-04-24T02:41:27;2.10;;;0.80;;
4430;SDS011;2228;48.140;11.488;2023-04-24T02:43:56;1.00;;;0.70;;
4430;SDS011;2228;48.140;11.488;2023-04-24T02:46:23;1.40;;;0.80;;
4430;SDS011;2228;48.140;11.488;2023-04-24T02:48:52;3.13;;;0.80;;
4430;SDS011;2228;48.140;11.488;2023-04-24T02:51:19;3.47;;;0.80;;
4430;SDS011;2228;48.140;11.488;2023-04-24T02:53:46;1.00;;;0.70;;
4430;SDS011;2228;48.140;11.488;2023-04-24T02:56:13;1.20;;;0.70;;
4430;SDS011;2228;48.140;11.488;2023-04-24T02:58:40;1.40;;;0.90;;
4430;SDS011;2228;48.140;11.488;2023-04-24T03:01:07;0.98;;;0.70;;
4430;SDS011;2228;48.140;11.488;2023-04-24T03:03:34;2.20;;;0.77;;
4430;SDS011;2228;48.140;11.488;2023-04-24T03:06:03;2.92;;;0.80;;
4430;SDS011;2228;48.140;11.488;2023-04-24T03:08:30;1.30;;;0.80;;
4430;SDS011;2228;48.140;11.488;2023-04-24T03:10:57;2.70;;;0.90;;
4430;SDS011;2228;48.140;11.488;2023-04-24T03:13:24;4.30;;;0.80;;
4430;SDS011;2228;48.140;11.488;2023-04-24T03:15:51;1.95;;;0.80;;
4430;SDS011;2228;48.140;11.488;2023-04-24T03:18:19;2.60;;;0.80;;
4430;SDS011;2228;48.140;11.488;2023-04-24T03:20:46;2.80;;;0.90;;
4430;SDS011;2228;48.140;11.488;2023-04-24T03:23:14;3.40;;;1.00;;
4430;SDS011;2228;48.140;11.488;2023-04-24T03:25:41;2.28;;;1.00;;
4430;SDS011;2228;48.140;11.488;2023-04-24T03:28:08;1.55;;;0.90;;
4430;SDS011;2228;48.140;11.488;2023-04-24T03:30:35;1.20;;;0.90;;
4430;SDS011;2228;48.140;11.488;2023-04-24T03:33:02;2.28;;;0.82;;
4430;SDS011;2228;48.140;11.488;2023-04-24T03:35:29;1.75;;;1.00;;
4430;SDS011;2228;48.140;11.488;2023-04-24T03:37:56;3.03;;;1.00;;
4430;SDS011;2228;48.140;11.488;2023-04-24T03:40:24;3.97;;;1.00;;
4430;SDS011;2228;48.140;11.488;2023-04-24T03:42:51;1.77;;;1.00;;
4430;SDS011;2228;48.140;11.488;2023-04-24T03:45:18;2.00;;;1.00;;
4430;SDS011;2228;48.140;11.488;2023-04-24T03:47:45;2.50;;;1.00;;
4430;SDS011;2228;48.140;11.488;2023-04-24T03:50:11;3.20;;;1.10;;
4430;SDS011;2228;48.140;11.488;2023-04-24T03:52:38;4.30;;;1.20;;
4430;SDS011;2228;48.140;11.488;2023-04-24T03:55:05;2.50;;;1.00;;
4430;SDS011;2228;48.140;11.488;2023-04-24T03:57:34;1.80;;;1.10;;
4430;SDS011;2228;48.140;11.488;2023-04-24T04:00:01;3.80;;;1.20;;
4430;SDS011;2228;48.140;11.488;2023-04-24T04:02:29;1.70;;;1.10;;
4430;SDS011;2228;48.140;11.488;2023-04-24T04:04:56;5.30;;;1.20;;
4430;SDS011;2228;48.140;11.488;2023-04-24T04:07:23;2.55;;;1.10;;
4430;SDS011;2228;48.140;11.488;2023-04-24T04:09:50;2.23;;;1.20;;
4430;SDS011;2228;48.140;11.488;2023-04-24T04:12:17;1.40;;;0.90;;
4430;SDS011;2228;48.140;11.488;2023-04-24T04:14:46;1.97;;;1.10;;
4430;SDS011;2228;48.140;11.488;2023-04-24T04:17:12;2.77;;;1.30;;
4430;SDS011;2228;48.140;11.488;2023-04-24T04:19:39;2.17;;;1.00;;
4430;SDS011;2228;48.140;11.488;2023-04-24T04:22:06;1.40;;;1.00;;
4430;SDS011;2228;48.140;11.488;2023-04-24T04:24:33;1.50;;;1.00;;
4430;SDS011;2228;48.140;11.488;2023-04-24T04:27:02;3.80;;;1.83;;
4430;SDS011;2228;48.140;11.488;2023-04-24T04:29:30;2.03;;;1.45;;
4430;SDS011;2228;48.140;11.488;2023-04-24T04:31:59;6.72;;;1.50;;
4430;SDS011;2228;48.140;11.488;2023-04-24T04:34:26;5.07;;;1.60;;
4430;SDS011;2228;48.140;11.488;2023-04-24T04:36:54;4.30;;;1.65;;
4430;SDS011;2228;48.140;11.488;2023-04-24T04:39:20;6.13;;;1.60;;
4430;SDS011;2228;48.140;11.488;2023-04-24T04:41:47;3.38;;;1.40;;
4430;SDS011;2228;48.140;11.488;2023-04-24T04:44:15;4.20;;;1.17;;
4430;SDS011;2228;48.140;11.488;2023-04-24T04:46:42;8.60;;;1.53;;
4430;SDS011;2228;48.140;11.488;2023-04-24T04:49:10;4.50;;;1.25;;
4430;SDS011;2228;48.140;11.488;2023-04-24T04:51:38;7.75;;;1.30;;
4430;SDS011;2228;48.140;11.488;2023-04-24T04:54:05;4.30;;;1.30;;
4430;SDS011;2228;48.140;11.488;2023-04-24T04:56:31;4.60;;;1.40;;
4430;SDS011;2228;48.140;11.488;2023-04-24T04:58:58;4.30;;;1.42;;
4430;SDS011;2228;48.140;11.488;2023-04-24T05:01:25;4.20;;;1.30;;
4430;SDS011;2228;48.140;11.488;2023-04-24T05:03:52;2.63;;;1.00;;
4430;SDS011;2228;48.140;11.488;2023-04-24T05:06:21;3.42;;;1.00;;
4430;SDS011;2228;48.140;11.488;2023-04-24T05:08:47;4.25;;;1.17;;
4430;SDS011;2228;48.140;11.488;2023-04-24T05:11:16;1.40;;;1.00;;
4430;SDS011;2228;48.140;11.488;2023-04-24T05:13:43;1.58;;;0.80;;
4430;SDS011;2228;48.140;11.488;2023-04-24T05:16:09;1.92;;;0.90;;
4430;SDS011;2228;48.140;11.488;2023-04-24T05:18:36;3.75;;;1.30;;
4430;SDS011;2228;48.140;11.488;2023-04-24T05:21:03;1.30;;;0.80;;
4430;SDS011;2228;48.140;11.488;2023-04-24T05:23:32;1.73;;;0.82;;
4430;SDS011;2228;48.140;11.488;2023-04-24T05:25:59;2.20;;;0.90;;
4430;SDS011;2228;48.140;11.488;2023-04-24T05:28:26;1.73;;;0.80;;
4430;SDS011;2228;48.140;11.488;2023-04-24T05:30:54;1.30;;;0.70;;
4430;SDS011;2228;48.140;11.488;2023-04-24T05:33:21;1.40;;;0.75;;
4430;SDS011;2228;48.140;11.488;2023-04-24T05:35:48;1.90;;;0.80;;
4430;SDS011;2228;48.140;11.488;2023-04-24T05:38:15;1.90;;;0.80;;
4430;SDS011;2228;48.140;11.488;2023-04-24T05:40:44;2.97;;;0.80;;
4430;SDS011;2228;48.140;11.488;2023-04-24T05:43:11;1.90;;;0.70;;
4430;SDS011;2228;48.140;11.488;2023-04-24T05:45:38;3.38;;;0.80;;
4430;SDS011;2228;48.140;11.488;2023-04-24T05:48:05;0.90;;;0.70;;
4430;SDS011;2228;48.140;11.488;2023-04-24T05:50:32;2.13;;;0.95;;
4430;SDS011;2228;48.140;11.488;2023-04-24T05:53:00;1.70;;;0.70;;
4430;SDS011;2228;48.140;11.488;2023-04-24T05:55:27;3.00;;;1.00;;
4430;SDS011;2228;48.140;11.488;2023-04-24T05:57:56;1.10;;;0.80;;
4430;SDS011;2228;48.140;11.488;2023-04-24T06:00:27;2.00;;;0.80;;
4430;SDS011;2228;48.140;11.488;2023-04-24T06:02:54;1.60;;;0.80;;
4430;SDS011;2228;48.140;11.488;2023-04-24T06:05:21;0.80;;;0.70;;
4430;SDS011;2228;48.140;11.488;2023-04-24T06:07:48;1.60;;;0.70;;
4430;SDS011;2228;48.140;11.488;2023-04-24T06:10:15;0.80;;;0.60;;
4430;SDS011;2228;48.140;11.488;2023-04-24T06:12:42;1.50;;;0.60;;
4430;SDS011;2228;48.140;11.488;2023-04-24T06:15:11;1.90;;;0.70;;
4430;SDS011;2228;48.140;11.488;2023-04-24T06:17:39;1.05;;;0.60;;
4430;SDS011;2228;48.140;11.488;2023-04-24T06:20:06;1.33;;;0.60;;
4430;SDS011;2228;48.140;11.488;2023-04-24T06:22:33;3.20;;;0.80;;
4430;SDS011;2228;48.140;11.488;2023-04-24T06:25:01;1.40;;;0.60;;
4430;SDS011;2228;48.140;11.488;2023-04-24T06:27:29;1.30;;;0.60;;
4430;SDS011;2228;48.140;11.488;2023-04-24T06:29:56;0.80;;;0.60;;
4430;SDS011;2228;48.140;11.488;2023-04-24T06:32:25;1.60;;;0.55;;
4430;SDS011;2228;48.140;11.488;2023-04-24T06:34:53;1.00;;;0.60;;
4430;SDS011;2228;48.140;11.488;2023-04-24T06:37:20;2.40;;;0.65;;
4430;SDS011;2228;48.140;11.488;2023-04-24T06:39:48;0.85;;;0.50;;
4430;SDS011;2228;48.140;11.488;2023-04-24T06:42:15;3.03;;;0.93;;
4430;SDS011;2228;48.140;11.488;2023-04-24T06:44:42;1.50;;;0.60;;
4430;SDS011;2228;48.140;11.488;2023-04-24T06:47:10;0.98;;;0.50;;
4430;SDS011;2228;48.140;11.488;2023-04-24T06:49:40;1.30;;;0.60;;
4430;SDS011;2228;48.140;11.488;2023-04-24T06:52:07;2.10;;;0.60;;
4430;SDS011;2228;48.140;11.488;2023-04-24T06:54:34;0.90;;;0.60;;
4430;SDS011;2228;48.140;11.488;2023-04-24T06:57:01;1.10;;;0.60;;
4430;SDS011;2228;48.140;11.488;2023-04-24T06:59:28;1.30;;;0.50;;
4430;SDS011;2228;48.140;11.488;2023-04-24T07:01:56;0.80;;;0.50;;
4430;SDS011;2228;48.140;11.488;2023-04-24T07:04:23;1.00;;;0.50;;
4430;SDS011;2228;48.140;11.488;2023-04-24T07:06:52;2.00;;;0.50;;
4430;SDS011;2228;48.140;11.488;2023-04-24T07:09:21;1.27;;;0.60;;
4430;SDS011;2228;48.140;11.488;2023-04-24T07:11:49;1.98;;;0.60;;
4430;SDS011;2228;48.140;11.488;2023-04-24T07:14:16;1.27;;;0.60;;
4430;SDS011;2228;48.140;11.488;2023-04-24T07:16:43;0.70;;;0.50;;
4430;SDS011;2228;48.140;11.488;2023-04-24T07:19:10;1.20;;;0.65;;
4430;SDS011;2228;48.140;11.488;2023-04-24T07:21:37;1.00;;;0.60;;
4430;SDS011;2228;48.140;11.488;2023-04-24T07:24:05;1.05;;;0.50;;
4430;SDS011;2228;48.140;11.488;2023-04-24T07:26:36;1.30;;;0.52;;
4430;SDS011;2228;48.140;11.488;2023-04-24T07:29:03;1.20;;;0.50;;
4430;SDS011;2228;48.140;11.488;2023-04-24T07:31:30;0.80;;;0.50;;
4430;SDS011;2228;48.140;11.488;2023-04-24T07:33:57;1.10;;;0.50;;
4430;SDS011;2228;48.140;11.488;2023-04-24T07:36:24;1.00;;;0.60;;
4430;SDS011;2228;48.140;11.488;2023-04-24T07:38:51;0.90;;;0.50;;
4430;SDS011;2228;48.140;11.488;2023-04-24T07:41:19;1.45;;;0.65;;
4430;SDS011;2228;48.140;11.488;2023-04-24T07:43:46;1.67;;;0.60;;
4430;SDS011;2228;48.140;11.488;2023-04-24T07:46:13;1.20;;;0.70;;
4430;SDS011;2228;48.140;11.488;2023-04-24T07:48:40;1.00;;;0.70;;
4430;SDS011;2228;48.140;11.488;2023-04-24T07:51:07;0.73;;;0.60;;
4430;SDS011;2228;48.140;11.488;2023-04-24T07:53:35;0.80;;;0.55;;
4430;SDS011;2228;48.140;11.488;2023-04-24T07:56:02;5.40;;;0.60;;
4430;SDS011;2228;48.140;11.488;2023-04-24T07:58:30;0.90;;;0.60;;
4430;SDS011;2228;48.140;11.488;2023-04-24T08:00:57;2.97;;;0.60;;
4430;SDS011;2228;48.140;11.488;2023-04-24T08:03:26;1.20;;;0.60;;
4430;SDS011;2228;48.140;11.488;2023-04-24T08:05:53;1.00;;;0.50;;
4430;SDS011;2228;48.140;11.488;2023-04-24T08:08:20;1.00;;;0.50;;
4430;SDS011;2228;48.140;11.488;2023-04-24T08:10:48;0.85;;;0.70;;
4430;SDS011;2228;48.140;11.488;2023-04-24T08:13:15;2.50;;;0.60;;
4430;SDS011;2228;48.140;11.488;2023-04-24T08:15:43;2.00;;;0.60;;
4430;SDS011;2228;48.140;11.488;2023-04-24T08:18:10;0.70;;;0.50;;
4430;SDS011;2228;48.140;11.488;2023-04-24T08:20:40;0.90;;;0.50;;
4430;SDS011;2228;48.140;11.488;2023-04-24T08:23:07;0.70;;;0.60;;
4430;SDS011;2228;48.140;11.488;2023-04-24T08:25:34;2.05;;;0.60;;
4430;SDS011;2228;48.140;11.488;2023-04-24T08:28:02;3.00;;;0.70;;
4430;SDS011;2228;48.140;11.488;2023-04-24T08:30:29;0.70;;;0.60;;
4430;SDS011;2228;48.140;11.488;2023-04-24T08:32:58;2.50;;;0.80;;
4430;SDS011;2228;48.140;11.488;2023-04-24T08:35:25;2.80;;;0.70;;
4430;SDS011;2228;48.140;11.488;2023-04-24T08:37:52;1.10;;;0.80;;
4430;SDS011;2228;48.140;11.488;2023-04-24T08:40:20;1.30;;;1.00;;
4430;SDS011;2228;48.140;11.488;2023-04-24T08:42:57;0.90;;;0.70;;
4430;SDS011;2228;48.140;11.488;2023-04-24T08:45:26;3.38;;;1.00;;
4430;SDS011;2228;48.140;11.488;2023-04-24T08:47:53;2.15;;;0.90;;
4430;SDS011;2228;48.140;11.488;2023-04-24T08:50:22;2.60;;;1.20;;
4430;SDS011;2228;48.140;11.488;2023-04-24T08:52:49;1.75;;;1.00;;
4430;SDS011;2228;48.140;11.488;2023-04-24T08:55:18;3.20;;;1.00;;
4430;SDS011;2228;48.140;11.488;2023-04-24T08:57:49;3.90;;;1.10;;
4430;SDS011;2228;48.140;11.488;2023-04-24T09:00:17;3.03;;;0.93;;
4430;SDS011;2228;48.140;11.488;2023-04-24T09:02:45;1.30;;;1.00;;
4430;SDS011;2228;48.140;11.488;2023-04-24T09:05:14;1.00;;;0.80;;
4430;SDS011;2228;48.140;11.488;2023-04-24T09:07:47;3.58;;;0.95;;
4430;SDS011;2228;48.140;11.488;2023-04-24T09:10:15;1.00;;;0.80;;
4430;SDS011;2228;48.140;11.488;2023-04-24T09:12:42;2.10;;;0.80;;
4430;SDS011;2228;48.140;11.488;2023-04-24T09:15:11;1.20;;;0.90;;
4430;SDS011;2228;48.140;11.488;2023-04-24T09:17:38;1.23;;;1.02;;
4430;SDS011;2228;48.140;11.488;2023-04-24T09:20:05;1.27;;;0.90;;
4430;SDS011;2228;48.140;11.488;2023-04-24T09:22:33;2.22;;;0.80;;
4430;SDS011;2228;48.140;11.488;2023-04-24T09:25:03;1.63;;;0.80;;
4430;SDS011;2228;48.140;11.488;2023-04-24T09:27:31;1.02;;;0.82;;
4430;SDS011;2228;48.140;11.488;2023-04-24T09:29:59;3.42;;;0.98;;
4430;SDS011;2228;48.140;11.488;2023-04-24T09:32:27;1.60;;;0.80;;
4430;SDS011;2228;48.140;11.488;2023-04-24T09:37:46;1.73;;;1.00;;
4430;SDS011;2228;48.140;11.488;2023-04-24T09:40:16;2.20;;;1.00;;
4430;SDS011;2228;48.140;11.488;2023-04-24T09:42:45;2.53;;;1.10;;
4430;SDS011;2228;48.140;11.488;2023-04-24T09:45:12;2.40;;;0.90;;
4430;SDS011;2228;48.140;11.488;2023-04-24T09:47:40;1.52;;;1.00;;
4430;SDS011;2228;48.140;11.488;2023-04-24T09:50:11;1.60;;;0.90;;
4430;SDS011;2228;48.140;11.488;2023-04-24T09:52:40;1.13;;;0.90;;
4430;SDS011;2228;48.140;11.488;2023-04-24T09:55:13;2.00;;;1.20;;
4430;SDS011;2228;48.140;11.488;2023-04-24T09:57:53;1.58;;;1.00;;
4430;SDS011;2228;48.140;11.488;2023-04-24T10:00:21;1.20;;;1.00;;
4430;SDS011;2228;48.140;11.488;2023-04-24T10:02:58;1.40;;;1.27;;
4430;SDS011;2228;48.140;11.488;2023-04-24T10:05:27;1.70;;;0.90;;
4430;SDS011;2228;48.140;11.488;2023-04-24T10:08:00;1.42;;;0.80;;
4430;SDS011;2228;48.140;11.488;2023-04-24T10:10:29;1.30;;;1.00;;
4430;SDS011;2228;48.140;11.488;2023-04-24T10:12:57;2.00;;;0.80;;
4430;SDS011;2228;48.140;11.488;2023-04-24T10:15:26;1.50;;;1.00;;
4430;SDS011;2228;48.140;11.488;2023-04-24T10:17:54;3.30;;;0.90;;
4430;SDS011;2228;48.140;11.488;2023-04-24T10:20:24;1.60;;;1.02;;
4430;SDS011;2228;48.140;11.488;2023-04-24T10:22:52;2.78;;;1.40;;
4430;SDS011;2228;48.140;11.488;2023-04-24T10:25:20;2.60;;;1.30;;
4430;SDS011;2228;48.140;11.488;2023-04-24T10:27:48;1.52;;;1.20;;
4430;SDS011;2228;48.140;11.488;2023-04-24T10:30:18;2.03;;;1.10;;
4430;SDS011;2228;48.140;11.488;2023-04-24T10:32:45;1.10;;;0.88;;
4430;SDS011;2228;48.140;11.488;2023-04-24T10:35:12;1.70;;;1.40;;
4430;SDS011;2228;48.140;11.488;2023-04-24T10:37:46;4.65;;;1.60;;
4430;SDS011;2228;48.140;11.488;2023-04-24T10:40:17;3.15;;;1.42;;
4430;SDS011;2228;48.140;11.488;2023-04-24T10:42:47;4.60;;;1.60;;
4430;SDS011;2228;48.140;11.488;2023-04-24T10:45:20;2.30;;;1.10;;
4430;SDS011;2228;48.140;11.488;2023-04-24T10:50:43;1.88;;;0.98;;
4430;SDS011;2228;48.140;11.488;2023-04-24T10:53:15;2.85;;;1.00;;
4430;SDS011;2228;48.140;11.488;2023-04-24T10:55:44;1.80;;;1.00;;
4430;SDS011;2228;48.140;11.488;2023-04-24T10:58:12;4.75;;;1.55;;
4430;SDS011;2228;48.140;11.488;2023-04-24T11:00:43;2.17;;;1.10;;
4430;SDS011;2228;48.140;11.488;2023-04-24T11:03:24;2.70;;;1.00;;
4430;SDS011;2228;48.140;11.488;2023-04-24T11:05:53;1.00;;;0.80;;
4430;SDS011;2228;48.140;11.488;2023-04-24T11:08:23;1.10;;;0.90;;
4430;SDS011;2228;48.140;11.488;2023-04-24T11:10:56;1.08;;;0.90;;
4430;SDS011;2228;48.140;11.488;2023-04-24T11:13:24;2.20;;;0.90;;
4430;SDS011;2228;48.140;11.488;2023-04-24T11:16:13;1.50;;;0.70;;
4430;SDS011;2228;48.140;11.488;2023-04-24T11:18:41;2.00;;;0.70;;
4430;SDS011;2228;48.140;11.488;2023-04-24T11:21:11;0.90;;;0.70;;
4430;SDS011;2228;48.140;11.488;2023-04-24T11:23:38;1.50;;;1.00;;
4430;SDS011;2228;48.140;11.488;2023-04-24T11:26:12;1.00;;;0.80;;
4430;SDS011;2228;48.140;11.488;2023-04-24T11:28:46;2.90;;;0.80;;
4430;SDS011;2228;48.140;11.488;2023-04-24T11:34:06;2.30;;;1.00;;
4430;SDS011;2228;48.140;11.488;2023-04-24T11:36:37;1.30;;;0.95;;
4430;SDS011;2228;48.140;11.488;2023-04-24T11:39:04;1.60;;;1.00;;
4430;SDS011;2228;48.140;11.488;2023-04-24T11:41:31;1.65;;;1.00;;
4430;SDS011;2228;48.140;11.488;2023-04-24T11:43:59;2.00;;;1.10;;
4430;SDS011;2228;48.140;11.488;2023-04-24T11:46:27;1.20;;;1.08;;
4430;SDS011;2228;48.140;11.488;2023-04-24T11:48:56;3.30;;;0.90;;
4430;SDS011;2228;48.140;11.488;2023-04-24T11:51:24;1.10;;;0.77;;
4430;SDS011;2228;48.140;11.488;2023-04-24T11:53:53;2.60;;;1.00;;
4430;SDS011;2228;48.140;11.488;2023-04-24T11:56:21;1.20;;;0.80;;
4430;SDS011;2228;48.140;11.488;2023-04-24T11:58:48;2.70;;;0.80;;
4430;SDS011;2228;48.140;11.488;2023-04-24T12:01:17;2.40;;;1.20;;
4430;SDS011;2228;48.140;11.488;2023-04-24T12:03:46;1.45;;;0.80;;
4430;SDS011;2228;48.140;11.488;2023-04-24T12:06:17;1.50;;;0.90;;
4430;SDS011;2228;48.140;11.488;2023-04-24T12:08:48;1.80;;;0.90;;
4430;SDS011;2228;48.140;11.488;2023-04-24T12:11:15;2.17;;;1.02;;
4430;SDS011;2228;48.140;11.488;2023-04-24T12:13:44;1.60;;;1.00;;
4430;SDS011;2228;48.140;11.488;2023-04-24T12:16:11;2.57;;;1.00;;
4430;SDS011;2228;48.140;11.488;2023-04-24T12:18:43;1.33;;;0.93;;
4430;SDS011;2228;48.140;11.488;2023-04-24T12:21:19;1.00;;;0.80;;
4430;SDS011;2228;48.140;11.488;2023-04-24T12:23:47;0.90;;;0.70;;
4430;SDS011;2228;48.140;11.488;2023-04-24T12:26:17;1.70;;;0.80;;
4430;SDS011;2228;48.140;11.488;2023-04-24T12:28:46;1.10;;;0.90;;
4430;SDS011;2228;48.140;11.488;2023-04-24T12:31:14;1.30;;;0.80;;
4430;SDS011;2228;48.140;11.488;2023-04-24T12:33:42;2.13;;;0.90;;
4430;SDS011;2228;48.140;11.488;2023-04-24T12:36:09;1.80;;;0.90;;
4430;SDS011;2228;48.140;11.488;2023-04-24T12:38:39;1.03;;;0.83;;
4430;SDS011;2228;48.140;11.488;2023-04-24T12:41:11;5.00;;;0.90;;
4430;SDS011;2228;48.140;11.488;2023-04-24T12:43:50;1.30;;;0.90;;
4430;SDS011;2228;48.140;11.488;2023-04-24T12:46:18;3.40;;;1.00;;
4430;SDS011;2228;48.140;11.488;2023-04-24T12:48:45;3.35;;;0.80;;
4430;SDS011;2228;48.140;11.488;2023-04-24T12:51:11;2.10;;;0.88;;
4430;SDS011;2228;48.140;11.488;2023-04-24T12:53:40;1.20;;;0.90;;
4430;SDS011;2228;48.140;11.488;2023-04-24T12:56:07;1.10;;;0.90;;
4430;SDS011;2228;48.140;11.488;2023-04-24T12:58:33;1.10;;;0.80;;
4430;SDS011;2228;48.140;11.488;2023-04-24T13:01:00;1.63;;;0.90;;
4430;SDS011;2228;48.140;11.488;2023-04-24T13:03:27;3.33;;;0.93;;
4430;SDS011;2228;48.140;11.488;2023-04-24T13:05:54;1.50;;;0.90;;
4430;SDS011;2228;48.140;11.488;2023-04-24T13:08:21;1.42;;;0.90;;
4430;SDS011;2228;48.140;11.488;2023-04-24T13:10:50;1.10;;;0.80;;
4430;SDS011;2228;48.140;11.488;2023-04-24T13:13:19;1.40;;;1.20;;
4430;SDS011;2228;48.140;11.488;2023-04-24T13:15:46;3.00;;;1.00;;
4430;SDS011;2228;48.140;11.488;2023-04-24T13:18:13;3.80;;;1.00;;
4430;SDS011;2228;48.140;11.488;2023-04-24T13:20:39;2.97;;;1.20;;
4430;SDS011;2228;48.140;11.488;2023-04-24T13:23:07;3.00;;;1.40;;
4430;SDS011;2228;48.140;11.488;2023-04-24T13:25:35;2.53;;;1.30;;
4430;SDS011;2228;48.140;11.488;2023-04-24T13:28:03;3.08;;;1.13;;
4430;SDS011;2228;48.140;11.488;2023-04-24T13:30:30;2.17;;;1.30;;
4430;SDS011;2228;48.140;11.488;2023-04-24T13:32:57;2.67;;;0.90;;
4430;SDS011;2228;48.140;11.488;2023-04-24T13:35:24;1.58;;;1.10;;
4430;SDS011;2228;48.140;11.488;2023-04-24T13:37:51;4.80;;;1.20;;
4430;SDS011;2228;48.140;11.488;2023-04-24T13:40:18;1.33;;;1.20;;
4430;SDS011;2228;48.140;11.488;2023-04-24T13:42:45;2.90;;;1.10;;
4430;SDS011;2228;48.140;11.488;2023-04-24T13:45:13;4.10;;;1.20;;
4430;SDS011;2228;48.140;11.488;2023-04-24T13:47:40;1.60;;;1.10;;
4430;SDS011;2228;48.140;11.488;2023-04-24T13:50:07;2.00;;;1.00;;
4430;SDS011;2228;48.140;11.488;2023-04-24T13:52:34;2.80;;;1.13;;
4430;SDS011;2228;48.140;11.488;2023-04-24T13:55:01;1.70;;;1.10;;
4430;SDS011;2228;48.140;11.488;2023-04-24T13:57:28;2.30;;;1.30;;
4430;SDS011;2228;48.140;11.488;2023-04-24T13:59:56;2.75;;;1.00;;
4430;SDS011;2228;48.140;11.488;2023-04-24T14:02:28;3.00;;;1.10;;
4430;SDS011;2228;48.140;11.488;2023-04-24T14:04:55;3.00;;;1.00;;
4430;SDS011;2228;48.140;11.488;2023-04-24T14:07:22;2.20;;;1.10;;
4430;SDS011;2228;48.140;11.488;2023-04-24T14:09:49;3.30;;;1.20;;
4430;SDS011;2228;48.140;11.488;2023-04-24T14:12:16;3.10;;;1.30;;
4430;SDS011;2228;48.140;11.488;2023-04-24T14:14:45;1.50;;;1.10;;
4430;SDS011;2228;48.140;11.488;2023-04-24T14:17:13;2.33;;;1.10;;
4430;SDS011;2228;48.140;11.488;2023-04-24T14:19:42;2.30;;;1.10;;
4430;SDS011;2228;48.140;11.488;2023-04-24T14:22:09;1.38;;;1.10;;
4430;SDS011;2228;48.140;11.488;2023-04-24T14:24:36;2.20;;;1.00;;
4430;SDS011;2228;48.140;11.488;2023-04-24T14:27:03;2.00;;;1.00;;
4430;SDS011;2228;48.140;11.488;2023-04-24T14:29:30;1.93;;;1.20;;
4430;SDS011;2228;48.140;11.488;2023-04-24T14:31:57;2.00;;;1.00;;
4430;SDS011;2228;48.140;11.488;2023-04-24T14:34:24;4.53;;;1.92;;
4430;SDS011;2228;48.140;11.488;2023-04-24T14:36:53;6.50;;;1.20;;
4430;SDS011;2228;48.140;11.488;2023-04-24T14:39:20;2.30;;;1.20;;
4430;SDS011;2228;48.140;11.488;2023-04-24T14:41:47;1.90;;;1.02;;
4430;SDS011;2228;48.140;11.488;2023-04-24T14:44:14;4.00;;;1.10;;
4430;SDS011;2228;48.140;11.488;2023-04-24T14:46:41;2.17;;;1.10;;
4430;SDS011;2228;48.140;11.488;2023-04-24T14:49:09;3.05;;;1.10;;
4430;SDS011;2228;48.140;11.488;2023-04-24T14:51:37;2.03;;;1.20;;
4430;SDS011;2228;48.140;11.488;2023-04-24T14:54:06;2.75;;;1.10;;
4430;SDS011;2228;48.140;11.488;2023-04-24T14:56:33;2.47;;;1.10;;
4430;SDS011;2228;48.140;11.488;2023-04-24T14:59:00;2.33;;;1.23;;
4430;SDS011;2228;48.140;11.488;2023-04-24T15:01:27;2.78;;;1.10;;
4430;SDS011;2228;48.140;11.488;2023-04-24T15:03:54;3.35;;;1.20;;
4430;SDS011;2228;48.140;11.488;2023-04-24T15:06:22;2.40;;;1.10;;
4430;SDS011;2228;48.140;11.488;2023-04-24T15:08:50;2.20;;;1.00;;
4430;SDS011;2228;48.140;11.488;2023-04-24T15:11:18;4.88;;;1.17;;
4430;SDS011;2228;48.140;11.488;2023-04-24T15:13:46;2.88;;;1.00;;